sensor_id;sensor_type;location;lat;lon;timestamp;pressure;altitude;pressure_sealevel;temperature;humidity
22775;BME280;11554;51.106;3.684;2022-10-03T00:00:06;102653.7;;;6.86;100.0
22775;BME280;11554;51.106;3.684;2022-10-03T00:05:05;102659.95;;;6.87;100.0
22775;BME280;11554;51.106;3.684;2022-10-03T00:10:02;102650.24;;;6.92;100.0
22775;BME280;11554;51.106;3.684;2022-10-03T00:15:01;102663.39;;;6.97;100.0
22775;BME280;11554;51.106;3.684;2022-10-03T00:20:02;102666.22;;;6.96;100.0
22775;BME280;11554;51.106;3.684;2022-10-03T00:25:03;102682.06999999999;;;6.88;100.0
22775;BME280;11554;51.106;3.684;2022-10-03T00:30:04;102700.01;;;6.75;100.0
22775;BME280;11554;51.106;3.684;2022-10-03T00:35:03;102700.48999999999;;;6.75;100.0
22775;BME280;11554;51.106;3.684;2022-10-03T00:40:09;102701.62;;;6.77;100.0
22775;BME280;11554;51.106;3.684;2022-10-03T00:45:09;102702.12;;;6.72;100.0
22775;BME280;11554;51.106;3.684;2022-10-03T00:50:03;102705.58000000002;;;6.74;100.0
22775;BME280;11554;51.106;3.684;2022-10-03T00:55:04;102701.86000000002;;;6.64;100.0
22775;BME280;11554;51.106;3.684;2022-10-03T01:00:04;102709.06;;;6.62;100.0
22775;BME280;11554;51.106;3.684;2022-10-03T01:05:02;102712.70999999999;;;6.54;100.0
22775;BME280;11554;51.106;3.684;2022-10-03T01:10:02;102719.04;;;6.52;100.0
22775;BME280;11554;51.106;3.684;2022-10-03T01:15:05;102720.28;;;6.42;100.0
22775;BME280;11554;51.106;3.684;2022-10-03T01:20:06;102723.99;;;6.40;100.0
22775;BME280;11554;51.106;3.684;2022-10-03T01:25:03;102726.53;;;6.36;100.0
22775;BME280;11554;51.106;3.684;2022-10-03T01:30:00;102728.73999999999;;;6.23;100.0
22775;BME280;11554;51.106;3.684;2022-10-03T01:35:03;102724.45;;;6.23;100.0
22775;BME280;11554;51.106;3.684;2022-10-03T01:40:04;102732.04000000001;;;6.21;100.0
22775;BME280;11554;51.106;3.684;2022-10-03T01:45:02;102728.05;;;6.04;100.0
22775;BME280;11554;51.106;3.684;2022-10-03T01:50:01;102728.76000000001;;;6.00;100.0
22775;BME280;11554;51.106;3.684;2022-10-03T01:55:02;102716.91;;;6.04;100.0
22775;BME280;11554;51.106;3.684;2022-10-03T02:00:01;102709.99999999999;;;5.95;100.0
22775;BME280;11554;51.106;3.684;2022-10-03T02:05:02;102701.75;;;5.95;100.0
22775;BME280;11554;51.106;3.684;2022-10-03T02:10:02;102701.34000000001;;;5.92;100.0
22775;BME280;11554;51.106;3.684;2022-10-03T02:15:00;102709.22;;;5.94;100.0
22775;BME280;11554;51.106;3.684;2022-10-03T02:20:02;102708.45;;;5.85;100.0
22775;BME280;11554;51.106;3.684;2022-10-03T02:25:04;102716.23999999999;;;5.82;100.0
22775;BME280;11554;51.106;3.684;2022-10-03T02:30:05;102723.93;;;5.78;100.0
22775;BME280;11554;51.106;3.684;2022-10-03T02:35:08;102732.59000000001;;;5.78;100.0
22775;BME280;11554;51.106;3.684;2022-10-03T02:45:07;102730.22;;;5.72;100.0
22775;BME280;11554;51.106;3.684;2022-10-03T03:00:04;102724.17;;;5.59;100.0
22775;BME280;11554;51.106;3.684;2022-10-03T03:10:06;102724.12999999999;;;5.49;100.0
22775;BME280;11554;51.106;3.684;2022-10-03T03:15:07;102728.09;;;5.46;100.0
22775;BME280;11554;51.106;3.684;2022-10-03T03:20:04;102726.18;;;5.43;100.0
22775;BME280;11554;51.106;3.684;2022-10-03T03:25:04;102728.65999999999;;;5.40;100.0
22775;BME280;11554;51.106;3.684;2022-10-03T03:30:01;102729.81;;;5.55;100.0
22775;BME280;11554;51.106;3.684;2022-10-03T03:35:03;102730.13;;;5.55;100.0
22775;BME280;11554;51.106;3.684;2022-10-03T03:40:04;102729.93;;;5.54;100.0
22775;BME280;11554;51.106;3.684;2022-10-03T03:45:10;102735.78;;;5.57;100.0
22775;BME280;11554;51.106;3.684;2022-10-03T03:50:09;102732.39000000001;;;5.51;100.0
22775;BME280;11554;51.106;3.684;2022-10-03T03:55:03;102733.68000000001;;;5.51;100.0
22775;BME280;11554;51.106;3.684;2022-10-03T04:00:02;102734.89;;;5.51;100.0
22775;BME280;11554;51.106;3.684;2022-10-03T04:05:05;102731.45;;;5.52;100.0
22775;BME280;11554;51.106;3.684;2022-10-03T04:10:04;102733.37;;;5.43;100.0
22775;BME280;11554;51.106;3.684;2022-10-03T04:15:06;102736.90999999999;;;5.33;100.0
22775;BME280;11554;51.106;3.684;2022-10-03T04:20:04;102738.34999999999;;;5.40;100.0
22775;BME280;11554;51.106;3.684;2022-10-03T04:25:04;102736.74;;;5.36;100.0
22775;BME280;11554;51.106;3.684;2022-10-03T04:30:03;102735.70999999999;;;5.36;100.0
22775;BME280;11554;51.106;3.684;2022-10-03T04:35:11;102735.06;;;5.26;100.0
22775;BME280;11554;51.106;3.684;2022-10-03T04:40:05;102743.08000000002;;;5.21;100.0
22775;BME280;11554;51.106;3.684;2022-10-03T04:45:03;102742.4;;;5.31;100.0
22775;BME280;11554;51.106;3.684;2022-10-03T04:50:02;102741.58;;;5.23;100.0
22775;BME280;11554;51.106;3.684;2022-10-03T04:55:01;102740.62;;;5.11;100.0
22775;BME280;11554;51.106;3.684;2022-10-03T05:00:03;102743.48999999999;;;5.13;100.0
22775;BME280;11554;51.106;3.684;2022-10-03T05:05:07;102747.48999999999;;;5.22;100.0
22775;BME280;11554;51.106;3.684;2022-10-03T05:10:01;102741.39;;;5.19;100.0
22775;BME280;11554;51.106;3.684;2022-10-03T05:15:03;102741.72000000002;;;5.05;100.0
22775;BME280;11554;51.106;3.684;2022-10-03T05:20:04;102746.09;;;5.02;100.0
22775;BME280;11554;51.106;3.684;2022-10-03T05:25:01;102743.26000000001;;;4.99;100.0
22775;BME280;11554;51.106;3.684;2022-10-03T05:30:02;102747.62000000001;;;5.01;100.0
22775;BME280;11554;51.106;3.684;2022-10-03T05:35:05;102749.22999999998;;;5.06;100.0
22775;BME280;11554;51.106;3.684;2022-10-03T05:40:00;102745.54000000001;;;5.09;100.0
22775;BME280;11554;51.106;3.684;2022-10-03T05:45:01;102749.04;;;5.06;100.0
22775;BME280;11554;51.106;3.684;2022-10-03T05:50:07;102754.68000000001;;;5.11;100.0
22775;BME280;11554;51.106;3.684;2022-10-03T05:55:03;102750.32;;;5.15;100.0
22775;BME280;11554;51.106;3.684;2022-10-03T06:00:03;102754.7;;;5.37;100.0
22775;BME280;11554;51.106;3.684;2022-10-03T06:10:09;102765.12;;;5.47;100.0
22775;BME280;11554;51.106;3.684;2022-10-03T06:15:04;102765.28000000001;;;5.58;100.0
22775;BME280;11554;51.106;3.684;2022-10-03T06:20:01;102767.64;;;5.66;100.0
22775;BME280;11554;51.106;3.684;2022-10-03T06:30:04;102767.18000000001;;;5.90;100.0
22775;BME280;11554;51.106;3.684;2022-10-03T06:40:10;102768.86;;;6.24;100.0
22775;BME280;11554;51.106;3.684;2022-10-03T06:45:08;102770.20999999999;;;6.46;100.0
22775;BME280;11554;51.106;3.684;2022-10-03T07:00:02;102782.85;;;7.69;100.0
22775;BME280;11554;51.106;3.684;2022-10-03T07:05:04;102787.06;;;7.98;100.0
22775;BME280;11554;51.106;3.684;2022-10-03T07:10:02;102794.87;;;8.27;100.0
22775;BME280;11554;51.106;3.684;2022-10-03T07:20:04;102795.12999999999;;;8.81;100.0
22775;BME280;11554;51.106;3.684;2022-10-03T07:30:05;102797.2;;;9.90;100.0
22775;BME280;11554;51.106;3.684;2022-10-03T07:35:05;102801.89;;;10.55;100.0
22775;BME280;11554;51.106;3.684;2022-10-03T07:40:05;102805.14;;;11.01;100.0
22775;BME280;11554;51.106;3.684;2022-10-03T07:45:04;102809.84000000001;;;11.47;100.0
22775;BME280;11554;51.106;3.684;2022-10-03T07:50:13;102818.99;;;11.69;100.0
22775;BME280;11554;51.106;3.684;2022-10-03T07:55:07;102829.09;;;11.78;100.0
22775;BME280;11554;51.106;3.684;2022-10-03T08:00:09;102829.8;;;11.96;100.0
22775;BME280;11554;51.106;3.684;2022-10-03T08:05:04;102836.47;;;12.24;100.0
22775;BME280;11554;51.106;3.684;2022-10-03T08:10:06;102836.68000000001;;;12.48;100.0
22775;BME280;11554;51.106;3.684;2022-10-03T08:15:03;102837.51999999999;;;12.74;100.0
22775;BME280;11554;51.106;3.684;2022-10-03T08:20:04;102839.11;;;12.86;100.0
22775;BME280;11554;51.106;3.684;2022-10-03T08:25:09;102842.23999999999;;;13.23;100.0
22775;BME280;11554;51.106;3.684;2022-10-03T08:30:03;102840.51999999999;;;13.46;100.0
22775;BME280;11554;51.106;3.684;2022-10-03T08:35:07;102836.15999999999;;;13.87;100.0
22775;BME280;11554;51.106;3.684;2022-10-03T08:55:10;102820.62000000001;;;14.91;100.0
22775;BME280;11554;51.106;3.684;2022-10-03T09:00:02;102815.47;;;15.38;100.0
22775;BME280;11554;51.106;3.684;2022-10-03T09:10:05;102812.15;;;15.92;100.0
22775;BME280;11554;51.106;3.684;2022-10-03T09:15:03;102812.73000000001;;;16.18;100.0
22775;BME280;11554;51.106;3.684;2022-10-03T09:20:05;102809.39000000001;;;16.31;100.0
22775;BME280;11554;51.106;3.684;2022-10-03T09:30:05;102808.45999999999;;;16.90;100.0
22775;BME280;11554;51.106;3.684;2022-10-03T09:35:07;102812.67;;;17.06;100.0
22775;BME280;11554;51.106;3.684;2022-10-03T09:55:05;102807.32;;;17.75;97.43
22775;BME280;11554;51.106;3.684;2022-10-03T10:00:05;102798.63;;;17.82;96.41
22775;BME280;11554;51.106;3.684;2022-10-03T10:05:05;102795.15;;;17.98;96.55
22775;BME280;11554;51.106;3.684;2022-10-03T10:10:06;102791.43999999999;;;17.99;95.63
22775;BME280;11554;51.106;3.684;2022-10-03T10:15:03;102782.09999999999;;;18.25;94.47
22775;BME280;11554;51.106;3.684;2022-10-03T10:20:06;102786.95999999999;;;18.81;92.21
22775;BME280;11554;51.106;3.684;2022-10-03T10:25:05;102790.32999999999;;;19.11;90.3
22775;BME280;11554;51.106;3.684;2022-10-03T10:30:07;102791.14;;;18.93;88.66
22775;BME280;11554;51.106;3.684;2022-10-03T10:40:06;102790.64000000001;;;18.93;89.2
22775;BME280;11554;51.106;3.684;2022-10-03T10:55:24;102787.65000000001;;;19.27;85.04
22775;BME280;11554;51.106;3.684;2022-10-03T11:15:08;102783.82999999999;;;20.11;84.2
22775;BME280;11554;51.106;3.684;2022-10-03T11:20:07;102782.90999999999;;;20.26;78.97
22775;BME280;11554;51.106;3.684;2022-10-03T11:25:09;102771.28;;;20.88;79.59
22775;BME280;11554;51.106;3.684;2022-10-03T11:30:06;102767.64;;;20.24;78.99
22775;BME280;11554;51.106;3.684;2022-10-03T11:40:04;102749.37999999999;;;21.13;76.31
22775;BME280;11554;51.106;3.684;2022-10-03T11:45:00;102755.56999999999;;;21.54;76.73
22775;BME280;11554;51.106;3.684;2022-10-03T11:50:10;102756.41;;;20.42;74.86
22775;BME280;11554;51.106;3.684;2022-10-03T11:55:06;102755.46999999999;;;20.84;76.6
22775;BME280;11554;51.106;3.684;2022-10-03T12:00:00;102746.39;;;20.99;75.33
22775;BME280;11554;51.106;3.684;2022-10-03T12:05:00;102749.68;;;21.02;72.78
22775;BME280;11554;51.106;3.684;2022-10-03T12:10:02;102745.72;;;21.33;77.56
22775;BME280;11554;51.106;3.684;2022-10-03T12:15:02;102735.18999999999;;;21.48;71.44
22775;BME280;11554;51.106;3.684;2022-10-03T12:20:02;102745.39;;;21.72;70.42
22775;BME280;11554;51.106;3.684;2022-10-03T12:25:00;102738.53;;;22.39;74.55
22775;BME280;11554;51.106;3.684;2022-10-03T12:30:01;102727.56;;;22.59;67.32
22775;BME280;11554;51.106;3.684;2022-10-03T12:35:02;102726.05;;;22.32;70.42
22775;BME280;11554;51.106;3.684;2022-10-03T12:40:01;102734.25;;;21.98;71.48
22775;BME280;11554;51.106;3.684;2022-10-03T12:45:01;102736.34;;;21.76;70.84
22775;BME280;11554;51.106;3.684;2022-10-03T12:50:02;102737.79;;;21.64;69.86
22775;BME280;11554;51.106;3.684;2022-10-03T12:55:04;102734.98999999999;;;21.61;71.55
22775;BME280;11554;51.106;3.684;2022-10-03T13:00:01;102729.14000000001;;;21.61;70.93
22775;BME280;11554;51.106;3.684;2022-10-03T13:05:06;102727.53;;;21.59;69.22
22775;BME280;11554;51.106;3.684;2022-10-03T13:10:01;102723.35;;;21.18;70.04
22775;BME280;11554;51.106;3.684;2022-10-03T13:20:00;102717.42;;;21.26;70.61
22775;BME280;11554;51.106;3.684;2022-10-03T13:25:00;102719.65;;;21.21;70.6
22775;BME280;11554;51.106;3.684;2022-10-03T13:30:02;102710.47000000002;;;20.93;70.85
22775;BME280;11554;51.106;3.684;2022-10-03T13:35:03;102702.37999999999;;;21.00;70.7
22775;BME280;11554;51.106;3.684;2022-10-03T13:40:01;102696.72;;;21.03;69.44
22775;BME280;11554;51.106;3.684;2022-10-03T13:45:00;102696.49999999999;;;21.22;72.12
22775;BME280;11554;51.106;3.684;2022-10-03T13:50:00;102689.25;;;21.16;71.48
22775;BME280;11554;51.106;3.684;2022-10-03T13:55:04;102682.09999999999;;;20.78;71.53
22775;BME280;11554;51.106;3.684;2022-10-03T14:00:00;102673.20999999999;;;20.66;71.75
22775;BME280;11554;51.106;3.684;2022-10-03T14:05:04;102668.69999999998;;;20.81;70.49
22775;BME280;11554;51.106;3.684;2022-10-03T14:10:04;102655.22;;;20.92;70.28
22775;BME280;11554;51.106;3.684;2022-10-03T14:15:04;102647.68999999999;;;21.43;70.28
22775;BME280;11554;51.106;3.684;2022-10-03T14:20:04;102630.18;;;21.33;69.08
22775;BME280;11554;51.106;3.684;2022-10-03T14:25:04;102631.70999999999;;;20.99;70.16
22775;BME280;11554;51.106;3.684;2022-10-03T14:30:02;102631.98;;;20.77;70.46
22775;BME280;11554;51.106;3.684;2022-10-03T14:35:02;102640.72000000002;;;21.21;71.65
22775;BME280;11554;51.106;3.684;2022-10-03T14:40:02;102623.0;;;21.67;70.92
22775;BME280;11554;51.106;3.684;2022-10-03T14:45:00;102618.55;;;22.13;68.54
22775;BME280;11554;51.106;3.684;2022-10-03T14:50:00;102614.12;;;21.92;68.85
22775;BME280;11554;51.106;3.684;2022-10-03T14:55:02;102603.54999999999;;;21.79;66.98
22775;BME280;11554;51.106;3.684;2022-10-03T15:00:00;102595.26000000001;;;21.24;69.1
22775;BME280;11554;51.106;3.684;2022-10-03T15:05:01;102579.15000000001;;;21.10;69.43
22775;BME280;11554;51.106;3.684;2022-10-03T15:10:00;102581.40000000001;;;20.78;69.0
22775;BME280;11554;51.106;3.684;2022-10-03T15:15:00;102590.43999999999;;;20.37;70.41
22775;BME280;11554;51.106;3.684;2022-10-03T15:20:00;102586.18;;;20.29;71.13
22775;BME280;11554;51.106;3.684;2022-10-03T15:25:02;102590.32999999999;;;20.04;70.37
22775;BME280;11554;51.106;3.684;2022-10-03T15:30:00;102572.48999999999;;;19.87;71.46
22775;BME280;11554;51.106;3.684;2022-10-03T15:35:00;102575.93999999999;;;19.66;71.79
22775;BME280;11554;51.106;3.684;2022-10-03T15:40:02;102575.35;;;19.16;72.17
22775;BME280;11554;51.106;3.684;2022-10-03T15:45:00;102579.37;;;18.82;73.6
22775;BME280;11554;51.106;3.684;2022-10-03T15:50:00;102572.61000000002;;;18.55;73.64
22775;BME280;11554;51.106;3.684;2022-10-03T15:55:01;102563.48000000001;;;18.25;74.3
22775;BME280;11554;51.106;3.684;2022-10-03T16:00:00;102555.43000000001;;;17.93;74.88
22775;BME280;11554;51.106;3.684;2022-10-03T16:05:01;102556.09;;;17.63;74.92
22775;BME280;11554;51.106;3.684;2022-10-03T16:10:03;102537.46;;;17.27;75.99
22775;BME280;11554;51.106;3.684;2022-10-03T16:15:04;102552.27;;;16.94;76.4
22775;BME280;11554;51.106;3.684;2022-10-03T16:20:02;102564.42;;;16.68;77.41
22775;BME280;11554;51.106;3.684;2022-10-03T16:25:01;102561.65000000001;;;16.36;78.01
22775;BME280;11554;51.106;3.684;2022-10-03T16:30:12;102554.97;;;16.09;78.99
22775;BME280;11554;51.106;3.684;2022-10-03T16:35:00;102553.89;;;15.87;79.62
22775;BME280;11554;51.106;3.684;2022-10-03T16:40:01;102548.71;;;15.60;80.79
22775;BME280;11554;51.106;3.684;2022-10-03T16:45:00;102541.35;;;15.35;81.86
22775;BME280;11554;51.106;3.684;2022-10-03T16:50:00;102536.32;;;15.15;82.62
22775;BME280;11554;51.106;3.684;2022-10-03T16:55:01;102536.21;;;14.97;83.62
22775;BME280;11554;51.106;3.684;2022-10-03T17:00:00;102529.08;;;14.79;84.1
22775;BME280;11554;51.106;3.684;2022-10-03T17:05:02;102528.58000000002;;;14.63;85.72
22775;BME280;11554;51.106;3.684;2022-10-03T17:10:00;102525.09;;;14.41;85.86
22775;BME280;11554;51.106;3.684;2022-10-03T17:15:01;102525.56999999999;;;14.23;87.43
22775;BME280;11554;51.106;3.684;2022-10-03T17:20:01;102523.71;;;14.08;88.16
22775;BME280;11554;51.106;3.684;2022-10-03T17:25:00;102514.87999999999;;;13.91;88.94
22775;BME280;11554;51.106;3.684;2022-10-03T17:30:00;102508.99999999999;;;13.77;89.95
22775;BME280;11554;51.106;3.684;2022-10-03T17:35:02;102507.26;;;13.61;90.59
22775;BME280;11554;51.106;3.684;2022-10-03T17:40:01;102501.55;;;13.39;91.43
22775;BME280;11554;51.106;3.684;2022-10-03T17:45:02;102504.09;;;13.12;91.56
22775;BME280;11554;51.106;3.684;2022-10-03T17:50:02;102505.7;;;12.93;92.34
22775;BME280;11554;51.106;3.684;2022-10-03T17:55:01;102503.25;;;12.65;92.17
22775;BME280;11554;51.106;3.684;2022-10-03T18:00:01;102499.45999999999;;;12.50;94.58
22775;BME280;11554;51.106;3.684;2022-10-03T18:05:02;102496.15;;;12.40;95.64
22775;BME280;11554;51.106;3.684;2022-10-03T18:10:00;102495.8;;;12.32;96.77
22775;BME280;11554;51.106;3.684;2022-10-03T18:15:06;102499.51000000001;;;12.21;97.18
22775;BME280;11554;51.106;3.684;2022-10-03T18:20:04;102500.73;;;12.14;98.1
22775;BME280;11554;51.106;3.684;2022-10-03T18:25:03;102500.04;;;12.13;100.0
22775;BME280;11554;51.106;3.684;2022-10-03T18:30:00;102506.26;;;11.93;99.51
22775;BME280;11554;51.106;3.684;2022-10-03T18:35:02;102516.66;;;11.88;100.0
22775;BME280;11554;51.106;3.684;2022-10-03T18:40:00;102513.43999999999;;;11.90;100.0
22775;BME280;11554;51.106;3.684;2022-10-03T18:45:00;102511.71999999999;;;11.85;100.0
22775;BME280;11554;51.106;3.684;2022-10-03T18:50:02;102504.82999999999;;;11.73;100.0
22775;BME280;11554;51.106;3.684;2022-10-03T18:55:00;102498.11;;;11.79;100.0
22775;BME280;11554;51.106;3.684;2022-10-03T19:00:00;102493.69999999998;;;11.74;100.0
22775;BME280;11554;51.106;3.684;2022-10-03T19:05:01;102488.73000000001;;;11.71;100.0
22775;BME280;11554;51.106;3.684;2022-10-03T19:15:04;102481.08;;;11.65;100.0
22775;BME280;11554;51.106;3.684;2022-10-03T19:20:10;102474.96;;;11.64;100.0
22775;BME280;11554;51.106;3.684;2022-10-03T19:25:00;102472.0;;;11.57;100.0
22775;BME280;11554;51.106;3.684;2022-10-03T19:30:00;102479.28;;;11.56;100.0
22775;BME280;11554;51.106;3.684;2022-10-03T19:35:02;102476.93999999999;;;11.37;100.0
22775;BME280;11554;51.106;3.684;2022-10-03T19:40:00;102466.56;;;11.27;100.0
22775;BME280;11554;51.106;3.684;2022-10-03T19:45:00;102471.02;;;11.26;100.0
22775;BME280;11554;51.106;3.684;2022-10-03T19:50:02;102475.34000000001;;;11.12;100.0
22775;BME280;11554;51.106;3.684;2022-10-03T19:55:01;102483.35999999999;;;10.95;100.0
22775;BME280;11554;51.106;3.684;2022-10-03T20:00:00;102479.46999999999;;;10.88;100.0
22775;BME280;11554;51.106;3.684;2022-10-03T20:05:00;102489.1;;;10.82;100.0
22775;BME280;11554;51.106;3.684;2022-10-03T20:10:02;102485.43999999999;;;10.82;100.0
22775;BME280;11554;51.106;3.684;2022-10-03T20:15:01;102487.26999999999;;;10.75;100.0
22775;BME280;11554;51.106;3.684;2022-10-03T20:20:00;102490.05;;;10.68;100.0
22775;BME280;11554;51.106;3.684;2022-10-03T20:25:00;102490.52999999998;;;10.63;100.0
22775;BME280;11554;51.106;3.684;2022-10-03T20:30:02;102490.45000000001;;;10.56;100.0
22775;BME280;11554;51.106;3.684;2022-10-03T20:35:00;102490.55;;;10.52;100.0
22775;BME280;11554;51.106;3.684;2022-10-03T20:40:04;102491.66;;;10.43;100.0
22775;BME280;11554;51.106;3.684;2022-10-03T20:45:00;102490.66;;;10.35;100.0
22775;BME280;11554;51.106;3.684;2022-10-03T20:50:00;102487.18;;;10.29;100.0
22775;BME280;11554;51.106;3.684;2022-10-03T20:55:01;102480.8;;;10.17;100.0
22775;BME280;11554;51.106;3.684;2022-10-03T21:00:03;102481.24;;;10.01;100.0
22775;BME280;11554;51.106;3.684;2022-10-03T21:05:00;102478.22000000002;;;9.93;100.0
22775;BME280;11554;51.106;3.684;2022-10-03T21:10:01;102472.62000000001;;;9.87;100.0
22775;BME280;11554;51.106;3.684;2022-10-03T21:15:01;102460.6;;;9.77;100.0
22775;BME280;11554;51.106;3.684;2022-10-03T21:20:00;102463.05;;;9.72;100.0
22775;BME280;11554;51.106;3.684;2022-10-03T21:25:00;102454.48;;;9.64;100.0
22775;BME280;11554;51.106;3.684;2022-10-03T21:30:01;102452.0;;;9.50;100.0
22775;BME280;11554;51.106;3.684;2022-10-03T21:35:01;102447.77999999998;;;9.44;100.0
22775;BME280;11554;51.106;3.684;2022-10-03T21:40:05;102441.52999999998;;;9.41;100.0
22775;BME280;11554;51.106;3.684;2022-10-03T21:45:04;102433.78;;;9.31;100.0
22775;BME280;11554;51.106;3.684;2022-10-03T21:50:00;102418.71;;;9.35;100.0
22775;BME280;11554;51.106;3.684;2022-10-03T21:55:06;102404.61;;;9.33;100.0
22775;BME280;11554;51.106;3.684;2022-10-03T22:00:01;102407.15;;;9.25;100.0
22775;BME280;11554;51.106;3.684;2022-10-03T22:05:00;102395.17;;;9.26;100.0
22775;BME280;11554;51.106;3.684;2022-10-03T22:10:00;102389.47;;;9.23;100.0
22775;BME280;11554;51.106;3.684;2022-10-03T22:15:02;102393.09;;;9.13;100.0
22775;BME280;11554;51.106;3.684;2022-10-03T22:20:04;102397.5;;;9.16;100.0
22775;BME280;11554;51.106;3.684;2022-10-03T22:25:06;102404.2;;;9.21;100.0
22775;BME280;11554;51.106;3.684;2022-10-03T22:30:00;102400.09999999999;;;9.22;100.0
22775;BME280;11554;51.106;3.684;2022-10-03T22:35:02;102404.45999999999;;;9.29;100.0
22775;BME280;11554;51.106;3.684;2022-10-03T22:40:00;102395.54000000001;;;9.30;100.0
22775;BME280;11554;51.106;3.684;2022-10-03T22:45:00;102389.31;;;9.28;100.0
22775;BME280;11554;51.106;3.684;2022-10-03T22:50:00;102392.8;;;9.28;100.0
22775;BME280;11554;51.106;3.684;2022-10-03T22:55:00;102398.24;;;9.21;100.0
22775;BME280;11554;51.106;3.684;2022-10-03T23:00:02;102386.33;;;9.27;100.0
22775;BME280;11554;51.106;3.684;2022-10-03T23:05:00;102392.92;;;9.16;100.0
22775;BME280;11554;51.106;3.684;2022-10-03T23:10:05;102398.92;;;9.12;100.0
22775;BME280;11554;51.106;3.684;2022-10-03T23:15:00;102387.15999999999;;;9.11;100.0
22775;BME280;11554;51.106;3.684;2022-10-03T23:20:02;102382.0;;;9.04;100.0
22775;BME280;11554;51.106;3.684;2022-10-03T23:25:00;102377.59;;;9.03;100.0
22775;BME280;11554;51.106;3.684;2022-10-03T23:35:11;102370.95000000001;;;8.97;100.0
22775;BME280;11554;51.106;3.684;2022-10-03T23:45:01;102348.58;;;9.11;100.0
22775;BME280;11554;51.106;3.684;2022-10-03T23:50:01;102351.76;;;9.16;100.0
22775;BME280;11554;51.106;3.684;2022-10-03T23:55:01;102351.59999999999;;;9.09;100.0
